Terminal Aerodrome Forecast
Issued by NWS Cleveland, OH

Home | Current Version | Previous Version | Text Only | Print | Product List | Glossary Off
Versions: 1 2 3 4 5 6 7 8 9 10 11 12 13 14 15 16 17 18 19 20 21 22 23 24 25 26 27 28

000
FTUS41 KCLE 210800 AAB
TAFCLE
TAF AMD
KCLE 210855Z 2109/2212 33009KT 4SM BR SCT008 OVC018
      TEMPO 2109/2113 2SM -RA BR BKN008
     FM211300 32012KT 4SM BR VCSH OVC012
     FM212000 33014G20KT P6SM VCSH OVC020
     FM220300 36010KT P6SM VCSH OVC018=

USA.gov is the U.S. government's official web portal to all federal, state and local government web resources and services.